createdAt,value
2019-01-21T00:01:47.707Z,14.20
2019-01-21T00:04:15.802Z,12.90
2019-01-21T00:06:44.043Z,13.72
2019-01-21T00:09:12.615Z,14.07
2019-01-21T00:11:40.638Z,12.82
2019-01-21T00:14:08.189Z,12.03
2019-01-21T00:16:37.780Z,14.03
2019-01-21T00:19:05.473Z,13.98
2019-01-21T00:21:33.525Z,12.75
2019-01-21T00:24:02.001Z,13.98
2019-01-21T00:26:30.004Z,13.93
2019-01-21T00:28:57.975Z,13.28
2019-01-21T00:31:26.331Z,14.43
2019-01-21T00:33:55.000Z,13.45
2019-01-21T00:36:23.280Z,13.62
2019-01-21T00:38:51.819Z,14.28
2019-01-21T00:41:19.752Z,13.50
2019-01-21T00:43:47.856Z,12.95
2019-01-21T00:46:15.804Z,12.90
2019-01-21T00:48:44.273Z,13.00
2019-01-21T00:51:12.751Z,11.97
2019-01-21T00:53:41.386Z,13.10
2019-01-21T00:56:09.719Z,12.73
2019-01-21T00:58:38.292Z,13.35
2019-01-21T01:01:06.076Z,14.60
2019-01-21T01:03:34.178Z,14.05
2019-01-21T01:06:02.560Z,13.75
2019-01-21T01:08:30.196Z,15.50
2019-01-21T01:10:58.666Z,14.40
2019-01-21T01:13:26.932Z,14.00
2019-01-21T01:15:54.845Z,15.10
2019-01-21T01:18:22.939Z,15.98
2019-01-21T01:20:50.954Z,13.72
2019-01-21T01:23:20.373Z,13.93
2019-01-21T01:25:48.852Z,15.13
2019-01-21T01:28:17.010Z,15.55
2019-01-21T01:30:47.020Z,13.72
2019-01-21T01:33:15.607Z,15.63
2019-01-21T01:35:43.608Z,15.25
2019-01-21T01:38:11.868Z,15.00
2019-01-21T01:40:40.245Z,14.83
2019-01-21T01:43:08.322Z,16.50
2019-01-21T01:45:37.323Z,13.00
2019-01-21T01:48:05.462Z,14.30
2019-01-21T01:50:33.536Z,14.65
2019-01-21T01:53:01.856Z,14.55
2019-01-21T01:55:30.701Z,15.00
2019-01-21T01:57:59.693Z,13.72
2019-01-21T02:00:27.712Z,15.85
2019-01-21T02:02:56.429Z,14.80
2019-01-21T02:05:25.980Z,12.73
2019-01-21T02:07:54.357Z,14.90
2019-01-21T02:10:22.627Z,13.75
2019-01-21T02:12:50.587Z,15.15
2019-01-21T02:15:19.246Z,13.38
2019-01-21T02:17:52.066Z,14.43
2019-01-21T02:20:17.652Z,13.90
2019-01-21T02:22:47.296Z,13.72
2019-01-21T02:25:15.490Z,13.60
2019-01-21T02:28:20.608Z,14.80
2019-01-21T02:31:31.032Z,15.45
2019-01-21T02:34:33.758Z,14.60
2019-01-21T02:38:01.255Z,14.58
2019-01-21T02:40:53.047Z,13.93
2019-01-21T02:43:50.313Z,14.18
2019-01-21T02:46:52.780Z,14.55
2019-01-21T02:49:57.113Z,14.78
2019-01-21T02:52:50.346Z,14.55
2019-01-21T02:55:33.009Z,16.05
2019-01-21T02:58:34.338Z,14.33
2019-01-21T03:01:42.851Z,13.15
2019-01-21T03:04:48.198Z,12.65
2019-01-21T03:07:25.687Z,13.88
2019-01-21T03:10:32.629Z,14.78
2019-01-21T03:13:20.934Z,14.03
2019-01-21T03:16:34.375Z,14.68
2019-01-21T03:19:38.696Z,13.83
2019-01-21T03:22:46.904Z,13.80
2019-01-21T03:26:04.031Z,12.93
2019-01-21T03:29:07.568Z,13.72
2019-01-21T03:32:12.887Z,14.40
2019-01-21T03:35:03.544Z,13.25
2019-01-21T03:38:14.214Z,13.72
2019-01-21T03:41:01.935Z,12.85
2019-01-21T03:44:02.024Z,14.40
2019-01-21T03:47:07.174Z,15.35
2019-01-21T03:50:12.867Z,14.07
2019-01-21T03:53:20.197Z,13.03
2019-01-21T03:55:51.037Z,12.88
2019-01-21T03:59:06.327Z,15.20
2019-01-21T04:02:17.425Z,13.00
2019-01-21T04:05:14.771Z,14.05
2019-01-21T04:08:12.635Z,13.78
2019-01-21T04:11:17.976Z,13.60
2019-01-21T04:14:33.023Z,13.30
2019-01-21T04:17:31.188Z,14.93
2019-01-21T04:20:27.551Z,13.88
2019-01-21T04:23:39.379Z,14.13
2019-01-21T04:26:37.773Z,13.40
2019-01-21T04:29:12.535Z,14.03
2019-01-21T04:31:59.792Z,14.85
2019-01-21T04:34:59.731Z,13.32
2019-01-21T04:38:05.273Z,13.45
2019-01-21T04:41:24.145Z,15.65
2019-01-21T04:44:13.788Z,13.55
2019-01-21T04:47:02.245Z,13.08
2019-01-21T04:49:46.317Z,13.72
2019-01-21T04:53:12.735Z,15.18
2019-01-21T04:56:24.617Z,13.45
2019-01-21T04:59:25.678Z,14.70
2019-01-21T05:02:23.166Z,14.43
2019-01-21T05:05:51.952Z,15.40
2019-01-21T05:08:58.663Z,15.50
2019-01-21T05:12:00.111Z,14.93
2019-01-21T05:15:15.241Z,14.83
2019-01-21T05:18:23.049Z,15.15
2019-01-21T05:21:28.475Z,14.28
2019-01-21T05:24:26.890Z,14.20
2019-01-21T05:27:42.793Z,15.00
2019-01-21T05:31:07.609Z,13.83
2019-01-21T05:33:55.528Z,14.85
2019-01-21T05:36:33.060Z,12.88
2019-01-21T05:39:32.931Z,14.25
2019-01-21T05:42:27.891Z,14.23
2019-01-21T05:45:29.539Z,15.05
2019-01-21T05:48:17.347Z,16.45
2019-01-21T05:51:47.945Z,13.22
2019-01-21T05:54:53.169Z,14.73
2019-01-21T05:58:14.336Z,15.00
2019-01-21T06:01:25.936Z,14.15
2019-01-21T06:04:18.769Z,13.40
2019-01-21T06:07:25.273Z,13.70
2019-01-21T06:10:28.130Z,14.58
2019-01-21T06:13:22.468Z,13.80
2019-01-21T06:16:31.469Z,14.00
2019-01-21T06:19:22.378Z,14.68
2019-01-21T06:22:20.491Z,15.80
2019-01-21T06:25:27.420Z,16.20
2019-01-21T06:28:31.349Z,13.35
2019-01-21T06:31:47.044Z,14.63
2019-01-21T06:34:55.238Z,14.07
2019-01-21T06:37:59.661Z,14.15
2019-01-21T06:41:01.774Z,14.25
2019-01-21T06:44:14.340Z,14.63
2019-01-21T06:47:11.804Z,14.07
2019-01-21T06:50:09.808Z,15.70
2019-01-21T06:53:19.638Z,15.75
2019-01-21T06:56:37.679Z,13.80
2019-01-21T06:59:40.667Z,13.58
2019-01-21T07:02:36.000Z,14.35
2019-01-21T07:05:32.743Z,13.78
2019-01-21T07:08:51.603Z,14.53
2019-01-21T07:11:41.580Z,14.03
2019-01-21T07:14:55.739Z,13.58
2019-01-21T07:18:03.054Z,13.15
2019-01-21T07:20:50.159Z,14.85
2019-01-21T07:23:50.388Z,14.00
2019-01-21T07:26:55.261Z,13.93
2019-01-21T07:29:38.739Z,12.55
2019-01-21T07:32:40.526Z,13.30
2019-01-21T07:35:49.929Z,13.68
2019-01-21T07:38:43.249Z,14.50
2019-01-21T07:41:49.080Z,16.05
2019-01-21T07:44:46.992Z,14.65
2019-01-21T07:47:34.581Z,15.05
2019-01-21T07:50:19.500Z,12.73
2019-01-21T07:53:19.544Z,14.98
2019-01-21T07:56:46.986Z,15.93
2019-01-21T07:59:51.175Z,16.10
2019-01-21T08:02:38.706Z,14.75
2019-01-21T08:05:46.912Z,14.35
2019-01-21T08:08:33.985Z,15.88
2019-01-21T08:11:46.447Z,14.38
2019-01-21T08:14:20.210Z,14.93
2019-01-21T08:17:14.504Z,16.32
2019-01-21T08:20:22.294Z,14.85
2019-01-21T08:23:31.421Z,14.55
2019-01-21T08:26:40.936Z,15.80
2019-01-21T08:29:37.835Z,15.98
2019-01-21T08:32:36.234Z,16.30
2019-01-21T08:35:20.111Z,15.20
2019-01-21T08:38:18.869Z,15.53
2019-01-21T08:41:21.135Z,17.23
2019-01-21T08:44:21.564Z,15.65
2019-01-21T08:47:05.071Z,15.58
2019-01-21T08:50:10.719Z,17.50
2019-01-21T08:52:54.264Z,14.63
2019-01-21T08:55:47.832Z,15.08
2019-01-21T08:59:06.202Z,15.13
2019-01-21T09:02:05.725Z,12.80
2019-01-21T09:05:02.864Z,15.68
2019-01-21T09:07:56.642Z,13.65
2019-01-21T09:10:54.322Z,13.88
2019-01-21T09:14:01.876Z,15.40
2019-01-21T09:16:47.647Z,14.20
2019-01-21T09:19:44.655Z,16.17
2019-01-21T09:22:44.029Z,14.80
2019-01-21T09:25:31.500Z,14.23
2019-01-21T09:28:29.681Z,15.35
2019-01-21T09:31:27.803Z,16.67
2019-01-21T09:34:06.347Z,13.08
2019-01-21T09:37:12.136Z,13.53
2019-01-21T09:40:11.237Z,14.35
2019-01-21T09:43:16.520Z,15.38
2019-01-21T09:46:19.924Z,14.45
2019-01-21T09:48:46.817Z,15.60
2019-01-21T09:51:17.602Z,13.95
2019-01-21T09:53:51.623Z,14.58
2019-01-21T09:56:20.745Z,16.55
2019-01-21T09:58:50.391Z,14.83
2019-01-21T10:01:19.438Z,15.25
2019-01-21T10:03:49.319Z,16.23
2019-01-21T10:06:19.606Z,14.25
2019-01-21T10:09:14.312Z,14.83
2019-01-21T10:12:05.515Z,14.10
2019-01-21T10:14:59.185Z,13.30
2019-01-21T10:18:04.983Z,15.07
2019-01-21T10:20:52.076Z,14.40
2019-01-21T10:24:13.821Z,13.23
2019-01-21T10:27:24.714Z,14.23
2019-01-21T10:30:29.471Z,14.17
2019-01-21T10:33:50.537Z,13.80
2019-01-21T10:37:02.380Z,13.80
2019-01-21T10:40:11.060Z,14.80
2019-01-21T10:43:16.317Z,14.50
2019-01-21T10:46:02.590Z,15.20
2019-01-21T10:48:57.050Z,16.97
2019-01-21T10:52:00.183Z,16.37
2019-01-21T10:54:37.662Z,14.50
2019-01-21T10:57:49.339Z,14.03
2019-01-21T11:00:33.469Z,15.00
2019-01-21T11:03:44.914Z,16.93
2019-01-21T11:06:35.230Z,15.27
2019-01-21T11:09:16.169Z,15.67
2019-01-21T11:12:10.692Z,15.80
2019-01-21T11:15:01.985Z,15.37
2019-01-21T11:17:37.523Z,16.20
2019-01-21T11:20:41.822Z,17.33
2019-01-21T11:23:48.318Z,16.77
2019-01-21T11:26:45.551Z,15.63
2019-01-21T11:29:46.739Z,15.13
2019-01-21T11:33:01.898Z,15.57
2019-01-21T11:36:09.516Z,15.77
2019-01-21T11:38:46.057Z,16.90
2019-01-21T11:41:52.491Z,16.97
2019-01-21T11:44:49.640Z,17.87
2019-01-21T11:47:43.867Z,16.20
2019-01-21T11:50:32.854Z,17.10
2019-01-21T11:53:14.548Z,15.17
2019-01-21T11:56:22.268Z,16.30
2019-01-21T11:59:19.932Z,17.87
2019-01-21T12:02:10.888Z,16.83
2019-01-21T12:05:19.228Z,16.87
2019-01-21T12:08:27.585Z,16.10
2019-01-21T12:11:34.814Z,16.47
2019-01-21T12:14:49.185Z,16.83
2019-01-21T12:18:05.733Z,17.20
2019-01-21T12:21:17.412Z,16.83
2019-01-21T12:24:24.190Z,15.40
2019-01-21T12:27:35.219Z,15.87
2019-01-21T12:30:48.390Z,17.70
2019-01-21T12:34:13.877Z,16.13
2019-01-21T12:37:26.275Z,17.80
2019-01-21T12:40:20.295Z,16.13
2019-01-21T12:43:13.075Z,16.53
2019-01-21T12:46:12.612Z,16.77
2019-01-21T12:49:02.748Z,15.13
2019-01-21T12:51:53.672Z,16.13
2019-01-21T12:54:58.020Z,15.47
2019-01-21T12:58:20.008Z,16.60
2019-01-21T13:01:07.223Z,17.57
2019-01-21T13:04:24.603Z,16.90
2019-01-21T13:07:05.831Z,17.97
2019-01-21T13:10:05.849Z,15.63
2019-01-21T13:12:58.300Z,16.73
2019-01-21T13:16:19.714Z,17.60
2019-01-21T13:19:27.876Z,15.80
2019-01-21T13:22:55.480Z,17.70
2019-01-21T13:26:04.779Z,17.53
2019-01-21T13:29:13.198Z,18.33
2019-01-21T13:32:10.105Z,16.27
2019-01-21T13:35:22.237Z,17.10
2019-01-21T13:38:30.223Z,17.20
2019-01-21T13:41:48.929Z,16.50
2019-01-21T13:45:00.900Z,19.40
2019-01-21T13:48:15.587Z,19.50
2019-01-21T13:51:19.873Z,19.80
2019-01-21T13:54:35.487Z,18.20
2019-01-21T13:58:03.036Z,19.93
2019-01-21T14:01:06.149Z,18.10
2019-01-21T14:04:32.223Z,19.40
2019-01-21T14:07:43.718Z,18.63
2019-01-21T14:11:10.099Z,18.03
2019-01-21T14:14:18.325Z,19.80
2019-01-21T14:17:30.211Z,19.50
2019-01-21T14:20:16.720Z,19.10
2019-01-21T14:23:17.955Z,19.20
2019-01-21T14:26:15.632Z,18.03
2019-01-21T14:29:50.104Z,18.53
2019-01-21T14:32:59.968Z,18.50
2019-01-21T14:35:57.815Z,21.50
2019-01-21T14:38:54.141Z,21.17
2019-01-21T14:42:11.626Z,19.23
2019-01-21T14:45:23.211Z,19.70
2019-01-21T14:48:08.345Z,19.60
2019-01-21T14:51:03.732Z,21.17
2019-01-21T14:54:08.352Z,21.60
2019-01-21T14:56:44.077Z,20.97
2019-01-21T14:59:54.126Z,25.20
2019-01-21T15:03:12.577Z,23.60
2019-01-21T15:06:26.464Z,19.60
2019-01-21T15:09:06.931Z,17.33
2019-01-21T15:12:00.678Z,18.60
2019-01-21T15:15:39.104Z,20.53
2019-01-21T15:18:40.317Z,19.53
2019-01-21T15:21:53.421Z,19.43
2019-01-21T15:24:47.258Z,23.60
2019-01-21T15:27:34.780Z,23.53
2019-01-21T15:30:40.490Z,20.07
2019-01-21T15:33:42.232Z,25.47
2019-01-21T15:36:41.581Z,18.60
2019-01-21T15:39:35.608Z,25.67
2019-01-21T15:42:31.697Z,25.80
2019-01-21T15:45:29.022Z,24.93
2019-01-21T15:48:36.708Z,27.60
2019-01-21T15:51:26.878Z,24.57
2019-01-21T15:54:21.498Z,20.60
2019-01-21T15:57:07.036Z,21.07
2019-01-21T16:00:10.988Z,19.75
2019-01-21T16:03:25.429Z,19.63
2019-01-21T16:06:10.136Z,18.37
2019-01-21T16:09:09.733Z,20.25
2019-01-21T16:12:17.609Z,18.77
2019-01-21T16:15:21.730Z,20.17
2019-01-21T16:18:04.999Z,19.55
2019-01-21T16:21:23.615Z,18.82
2019-01-21T16:24:36.742Z,20.57
2019-01-21T16:27:14.814Z,20.50
2019-01-21T16:30:08.208Z,25.57
2019-01-21T16:33:01.056Z,18.55
2019-01-21T16:36:00.101Z,18.80
2019-01-21T16:39:01.459Z,20.20
2019-01-21T16:42:22.163Z,19.42
2019-01-21T16:44:53.513Z,19.37
2019-01-21T16:47:21.560Z,18.32
2019-01-21T16:49:49.477Z,19.48
2019-01-21T16:52:16.881Z,18.25
2019-01-21T16:54:45.196Z,18.85
2019-01-21T16:57:13.859Z,18.90
2019-01-21T16:59:41.869Z,20.82
2019-01-21T17:02:10.440Z,18.60
2019-01-21T17:04:38.592Z,20.92
2019-01-21T17:07:07.317Z,23.00
2019-01-21T17:09:35.464Z,22.73
2019-01-21T17:12:03.734Z,22.62
2019-01-21T17:14:31.981Z,22.05
2019-01-21T17:17:00.798Z,23.80
2019-01-21T17:19:28.950Z,23.75
2019-01-21T17:21:56.809Z,21.35
2019-01-21T17:24:24.726Z,21.97
2019-01-21T17:26:54.253Z,21.60
2019-01-21T17:29:22.788Z,20.37
2019-01-21T17:31:53.089Z,18.00
2019-01-21T17:34:20.834Z,18.95
2019-01-21T17:36:52.315Z,18.82
2019-01-21T17:39:24.263Z,20.62
2019-01-21T17:41:54.228Z,18.92
2019-01-21T17:44:24.198Z,21.60
2019-01-21T17:46:53.742Z,23.75
2019-01-21T17:49:22.003Z,20.15
2019-01-21T17:51:50.490Z,18.77
2019-01-21T17:54:18.337Z,20.48
2019-01-21T17:56:46.173Z,20.77
2019-01-21T17:59:13.935Z,19.12
2019-01-21T18:01:42.571Z,18.62
2019-01-21T18:04:11.964Z,18.60
2019-01-21T18:06:40.146Z,17.60
2019-01-21T18:09:10.214Z,20.15
2019-01-21T18:11:41.896Z,18.17
2019-01-21T18:14:11.131Z,19.50
2019-01-21T18:16:47.910Z,18.57
2019-01-21T18:19:28.649Z,19.10
2019-01-21T18:21:57.542Z,18.95
2019-01-21T18:24:24.924Z,21.55
2019-01-21T18:26:53.698Z,21.55
2019-01-21T18:29:22.237Z,19.50
2019-01-21T18:31:50.574Z,19.30
2019-01-21T18:34:19.123Z,19.55
2019-01-21T18:36:46.823Z,19.27
2019-01-21T18:39:15.038Z,19.02
2019-01-21T18:41:43.832Z,21.17
2019-01-21T18:44:12.077Z,19.25
2019-01-21T18:46:40.717Z,18.37
2019-01-21T18:49:32.176Z,17.48
2019-01-21T18:52:10.846Z,16.27
2019-01-21T18:54:39.536Z,17.30
2019-01-21T18:57:08.126Z,16.75
2019-01-21T18:59:36.307Z,18.07
2019-01-21T19:02:05.102Z,16.95
2019-01-21T19:04:33.520Z,16.52
2019-01-21T19:07:02.666Z,17.55
2019-01-21T19:09:32.608Z,18.60
2019-01-21T19:12:01.096Z,18.15
2019-01-21T19:14:40.177Z,17.57
2019-01-21T19:17:08.614Z,17.73
2019-01-21T19:19:41.241Z,16.25
2019-01-21T19:22:10.170Z,16.80
2019-01-21T19:24:38.624Z,16.65
2019-01-21T19:27:09.307Z,21.45
2019-01-21T19:29:37.016Z,22.80
2019-01-21T19:32:10.380Z,22.27
2019-01-21T19:34:42.580Z,23.92
2019-01-21T19:37:12.793Z,21.17
2019-01-21T19:39:41.069Z,19.05
2019-01-21T19:42:09.189Z,19.85
2019-01-21T19:44:36.873Z,19.87
2019-01-21T19:47:05.138Z,20.52
2019-01-21T19:49:33.873Z,20.15
2019-01-21T19:52:01.711Z,19.73
2019-01-21T19:54:30.053Z,18.12
2019-01-21T19:56:58.570Z,17.15
2019-01-21T19:59:27.051Z,19.55
2019-01-21T20:01:55.957Z,19.32
2019-01-21T20:04:28.058Z,18.73
2019-01-21T20:06:55.874Z,22.35
2019-01-21T20:09:24.432Z,24.00
2019-01-21T20:11:52.607Z,21.87
2019-01-21T20:14:21.414Z,19.77
2019-01-21T20:16:49.672Z,20.00
2019-01-21T20:19:17.674Z,21.20
2019-01-21T20:21:48.697Z,19.23
2019-01-21T20:24:32.282Z,19.42
2019-01-21T20:27:01.435Z,20.37
2019-01-21T20:29:31.381Z,19.17
2019-01-21T20:32:00.482Z,20.55
2019-01-21T20:34:30.049Z,19.32
2019-01-21T20:36:58.456Z,17.20
2019-01-21T20:39:31.732Z,16.75
2019-01-21T20:42:05.638Z,20.02
2019-01-21T20:44:35.232Z,18.80
2019-01-21T20:47:03.398Z,18.85
2019-01-21T20:49:39.307Z,18.50
2019-01-21T20:52:13.918Z,19.42
2019-01-21T20:54:38.768Z,17.82
2019-01-21T20:57:10.549Z,17.00
2019-01-21T20:59:39.408Z,18.95
2019-01-21T21:02:11.491Z,20.70
2019-01-21T21:04:39.386Z,15.40
2019-01-21T21:07:10.090Z,18.02
2019-01-21T21:09:50.527Z,18.85
2019-01-21T21:12:18.686Z,17.20
2019-01-21T21:14:47.119Z,19.85
2019-01-21T21:17:15.668Z,16.32
2019-01-21T21:19:44.491Z,16.93
2019-01-21T21:22:21.164Z,16.48
2019-01-21T21:24:49.546Z,19.90
2019-01-21T21:27:45.836Z,17.80
2019-01-21T21:30:15.687Z,16.35
2019-01-21T21:32:48.943Z,19.23
2019-01-21T21:35:25.330Z,16.80
2019-01-21T21:37:57.528Z,17.27
2019-01-21T21:40:32.443Z,16.35
2019-01-21T21:43:20.630Z,16.70
2019-01-21T21:46:11.365Z,17.95
2019-01-21T21:48:41.725Z,17.15
2019-01-21T21:51:10.947Z,17.98
2019-01-21T21:53:39.939Z,16.48
2019-01-21T21:56:10.031Z,17.10
2019-01-21T21:58:52.865Z,18.55
2019-01-21T22:01:44.147Z,18.00
2019-01-21T22:04:40.284Z,17.90
2019-01-21T22:07:40.377Z,19.27
2019-01-21T22:10:22.041Z,16.80
2019-01-21T22:12:52.329Z,16.90
2019-01-21T22:15:29.466Z,16.50
2019-01-21T22:18:02.554Z,15.78
2019-01-21T22:20:30.622Z,17.40
2019-01-21T22:22:58.942Z,18.07
2019-01-21T22:25:28.656Z,15.72
2019-01-21T22:28:01.133Z,16.73
2019-01-21T22:30:32.155Z,18.62
2019-01-21T22:33:01.049Z,17.30
2019-01-21T22:35:31.902Z,16.57
2019-01-21T22:38:02.780Z,16.67
2019-01-21T22:40:31.830Z,16.37
2019-01-21T22:43:02.600Z,17.12
2019-01-21T22:45:31.528Z,17.57
2019-01-21T22:48:02.649Z,17.67
2019-01-21T22:50:31.007Z,17.55
2019-01-21T22:53:00.108Z,16.50
2019-01-21T22:55:29.713Z,15.43
2019-01-21T22:58:01.146Z,16.32
2019-01-21T23:01:13.787Z,16.77
2019-01-21T23:03:41.789Z,17.80
2019-01-21T23:06:09.981Z,15.93
2019-01-21T23:08:39.516Z,17.32
2019-01-21T23:11:10.572Z,16.12
2019-01-21T23:13:43.925Z,16.57
2019-01-21T23:16:12.411Z,16.40
2019-01-21T23:18:42.136Z,17.23
2019-01-21T23:21:10.386Z,17.05
2019-01-21T23:23:40.970Z,16.25
2019-01-21T23:26:11.587Z,16.05
2019-01-21T23:28:40.076Z,16.00
2019-01-21T23:31:08.552Z,17.57
2019-01-21T23:33:38.141Z,16.35
2019-01-21T23:36:10.254Z,16.80
2019-01-21T23:38:39.534Z,16.65
2019-01-21T23:41:08.214Z,17.27
2019-01-21T23:43:41.963Z,16.75
2019-01-21T23:46:10.024Z,17.65
2019-01-21T23:48:38.305Z,16.42
2019-01-21T23:51:07.786Z,17.05
2019-01-21T23:53:37.047Z,16.60
2019-01-21T23:56:05.553Z,15.20
2019-01-21T23:58:35.908Z,16.93
